createdAt,value
2022-10-11T00:02:26.742Z,12.80
2022-10-11T00:04:59.696Z,12.79
2022-10-11T00:07:32.065Z,12.83
2022-10-11T00:10:05.968Z,12.84
2022-10-11T00:12:38.767Z,12.86
2022-10-11T00:15:13.743Z,12.86
2022-10-11T00:17:56.109Z,12.86
2022-10-11T00:20:38.538Z,12.88
2022-10-11T00:23:27.515Z,12.89
2022-10-11T00:26:10.451Z,12.86
2022-10-11T00:28:52.471Z,12.87
2022-10-11T00:31:35.984Z,12.86
2022-10-11T00:34:18.378Z,12.87
2022-10-11T00:37:07.523Z,12.85
2022-10-11T00:39:49.642Z,12.84
2022-10-11T00:42:38.431Z,12.85
2022-10-11T00:46:08.420Z,12.80
2022-10-11T00:48:56.582Z,12.74
2022-10-11T00:51:50.718Z,12.75
2022-10-11T00:54:41.799Z,12.73
2022-10-11T00:57:36.237Z,12.60
2022-10-11T01:00:19.523Z,12.58
2022-10-11T01:03:02.783Z,12.41
2022-10-11T01:05:44.473Z,12.37
2022-10-11T01:08:33.919Z,12.34
2022-10-11T01:11:20.548Z,12.34
2022-10-11T01:14:42.608Z,12.33
2022-10-11T01:17:34.960Z,12.26
2022-10-11T01:20:44.830Z,12.21
2022-10-11T01:23:59.554Z,12.26
2022-10-11T01:27:24.767Z,12.30
2022-10-11T01:30:19.855Z,12.22
2022-10-11T01:33:18.491Z,12.18
2022-10-11T01:36:10.798Z,12.03
2022-10-11T01:38:57.698Z,12.09
2022-10-11T01:41:50.842Z,12.02
2022-10-11T01:44:36.472Z,12.02
2022-10-11T01:47:20.084Z,12.03
2022-10-11T01:50:03.216Z,12.01
2022-10-11T01:52:51.743Z,11.95
2022-10-11T01:55:40.512Z,11.93
2022-10-11T01:58:36.342Z,11.81
2022-10-11T02:01:26.785Z,11.65
2022-10-11T02:04:25.765Z,11.65
2022-10-11T02:07:21.758Z,11.67
2022-10-11T02:10:15.241Z,11.58
2022-10-11T02:13:02.656Z,11.48
2022-10-11T02:15:47.288Z,11.44
2022-10-11T02:18:54.236Z,11.52
2022-10-11T02:21:41.297Z,11.57
2022-10-11T02:24:34.295Z,11.47
2022-10-11T02:27:21.082Z,11.39
2022-10-11T02:30:09.752Z,11.40
2022-10-11T02:33:02.500Z,11.39
2022-10-11T02:35:57.376Z,11.38
2022-10-11T02:38:44.900Z,11.33
2022-10-11T02:41:34.419Z,11.37
2022-10-11T02:44:23.052Z,11.37
2022-10-11T02:47:13.645Z,11.39
2022-10-11T02:50:02.697Z,11.39
2022-10-11T02:52:44.849Z,11.45
2022-10-11T02:55:34.215Z,11.38
2022-10-11T02:58:17.444Z,11.44
2022-10-11T03:01:06.385Z,11.35
2022-10-11T03:03:48.140Z,11.41
2022-10-11T03:06:37.208Z,11.39
2022-10-11T03:09:25.028Z,11.43
2022-10-11T03:12:07.159Z,11.45
2022-10-11T03:14:55.815Z,11.49
2022-10-11T03:17:37.775Z,11.48
2022-10-11T03:20:20.674Z,11.49
2022-10-11T03:23:10.058Z,11.37
2022-10-11T03:25:59.112Z,11.44
2022-10-11T03:28:46.947Z,11.42
2022-10-11T03:31:28.719Z,11.43
2022-10-11T03:34:17.746Z,11.41
2022-10-11T03:36:59.600Z,11.21
2022-10-11T03:39:48.613Z,11.14
2022-10-11T03:42:30.396Z,11.18
2022-10-11T03:45:19.519Z,11.25
2022-10-11T03:48:01.682Z,11.30
2022-10-11T03:50:44.239Z,11.31
2022-10-11T03:53:27.297Z,11.23
2022-10-11T03:56:16.647Z,11.19
2022-10-11T03:59:05.687Z,11.22
2022-10-11T04:01:47.548Z,11.26
2022-10-11T04:04:30.540Z,11.31
2022-10-11T04:07:19.570Z,11.27
2022-10-11T04:10:01.415Z,11.34
2022-10-11T04:12:44.385Z,11.37
2022-10-11T04:15:27.411Z,11.43
2022-10-11T04:18:16.492Z,11.46
2022-10-11T04:20:58.218Z,11.46
2022-10-11T04:23:47.318Z,11.47
2022-10-11T04:26:29.131Z,11.51
2022-10-11T04:29:18.119Z,11.54
2022-10-11T04:31:59.995Z,11.53
2022-10-11T04:34:48.933Z,11.53
2022-10-11T04:37:30.774Z,11.47
2022-10-11T04:40:13.815Z,11.46
2022-10-11T04:43:02.761Z,11.48
2022-10-11T04:45:44.643Z,11.46
2022-10-11T04:48:33.865Z,11.42
2022-10-11T04:51:15.457Z,11.46
2022-10-11T04:54:04.543Z,11.46
2022-10-11T04:56:46.298Z,11.44
2022-10-11T04:59:29.320Z,11.42
2022-10-11T05:02:18.439Z,11.44
2022-10-11T05:05:00.150Z,11.43
2022-10-11T05:07:43.151Z,11.45
2022-10-11T05:10:32.183Z,11.45
2022-10-11T05:13:13.968Z,11.45
2022-10-11T05:16:07.164Z,11.44
2022-10-11T05:18:52.800Z,11.46
2022-10-11T05:21:35.870Z,11.44
2022-10-11T05:24:18.875Z,11.39
2022-10-11T05:27:03.588Z,11.43
2022-10-11T05:29:46.576Z,11.46
2022-10-11T05:32:35.510Z,11.43
2022-10-11T05:35:17.537Z,11.44
2022-10-11T05:38:00.363Z,11.23
2022-10-11T05:40:49.535Z,11.24
2022-10-11T05:43:31.691Z,11.34
2022-10-11T05:46:14.323Z,11.39
2022-10-11T05:49:03.241Z,11.47
2022-10-11T05:51:45.099Z,11.55
2022-10-11T05:54:30.017Z,11.53
2022-10-11T05:57:18.703Z,11.69
2022-10-11T06:00:00.476Z,11.72
2022-10-11T06:02:49.867Z,11.74
2022-10-11T06:05:38.968Z,11.76
2022-10-11T06:08:20.884Z,11.76
2022-10-11T06:11:14.548Z,11.71
2022-10-11T06:14:02.371Z,11.59
2022-10-11T06:16:50.219Z,11.53
2022-10-11T06:19:32.042Z,11.49
2022-10-11T06:22:21.099Z,11.52
2022-10-11T06:25:02.957Z,11.61
2022-10-11T06:27:51.879Z,11.69
2022-10-11T06:30:33.710Z,11.73
2022-10-11T06:33:23.643Z,11.75
2022-10-11T06:36:09.632Z,11.79
2022-10-11T06:38:53.225Z,11.82
2022-10-11T06:41:41.455Z,12.00
2022-10-11T06:44:30.916Z,12.06
2022-10-11T06:47:12.591Z,12.09
2022-10-11T06:50:01.621Z,12.16
2022-10-11T06:52:43.435Z,12.07
2022-10-11T06:55:26.475Z,12.07
2022-10-11T06:58:09.533Z,12.26
2022-10-11T07:01:01.425Z,12.34
2022-10-11T07:03:44.699Z,12.34
2022-10-11T07:06:28.109Z,12.43
2022-10-11T07:09:17.114Z,12.53
2022-10-11T07:11:58.908Z,12.74
2022-10-11T07:14:47.972Z,12.76
2022-10-11T07:17:29.824Z,12.79
2022-10-11T07:20:18.911Z,12.80
2022-10-11T07:23:00.603Z,12.76
2022-10-11T07:25:53.886Z,12.69
2022-10-11T07:28:37.012Z,12.52
2022-10-11T07:31:21.463Z,12.47
2022-10-11T07:34:10.424Z,12.60
2022-10-11T07:36:59.318Z,12.86
2022-10-11T07:39:41.111Z,12.78
2022-10-11T07:42:30.130Z,12.86
2022-10-11T07:45:11.970Z,12.87
2022-10-11T07:48:00.971Z,12.73
2022-10-11T07:50:42.826Z,12.76
2022-10-11T07:53:31.835Z,12.87
2022-10-11T07:56:15.342Z,12.79
2022-10-11T07:59:04.385Z,13.02
2022-10-11T08:01:46.278Z,13.10
2022-10-11T08:04:35.107Z,13.08
2022-10-11T08:07:16.978Z,13.15
2022-10-11T08:10:07.792Z,13.17
2022-10-11T08:12:49.546Z,13.11
2022-10-11T08:15:32.663Z,13.24
2022-10-11T08:18:21.706Z,13.25
2022-10-11T08:21:13.399Z,13.27
2022-10-11T08:23:55.922Z,13.23
2022-10-11T08:26:39.249Z,13.32
2022-10-11T08:29:27.896Z,13.40
2022-10-11T08:32:11.440Z,13.47
2022-10-11T08:35:00.310Z,13.57
2022-10-11T08:37:42.107Z,13.82
2022-10-11T08:40:35.178Z,13.80
2022-10-11T08:43:29.443Z,13.82
2022-10-11T08:46:14.723Z,13.82
2022-10-11T08:48:56.881Z,13.77
2022-10-11T08:51:50.318Z,13.81
2022-10-11T08:54:44.144Z,13.83
2022-10-11T08:57:29.310Z,13.87
2022-10-11T09:00:16.808Z,13.92
2022-10-11T09:03:09.583Z,13.86
2022-10-11T09:06:06.526Z,13.94
2022-10-11T09:09:08.074Z,13.91
2022-10-11T09:12:08.507Z,13.99
2022-10-11T09:15:08.130Z,14.19
2022-10-11T09:18:09.086Z,14.20
2022-10-11T09:21:09.011Z,14.40
2022-10-11T09:24:24.233Z,14.47
2022-10-11T09:27:05.172Z,14.52
2022-10-11T09:29:51.431Z,14.62
2022-10-11T09:32:30.233Z,14.78
2022-10-11T09:35:12.043Z,14.88
2022-10-11T09:37:53.785Z,14.99
2022-10-11T09:40:38.278Z,15.21
2022-10-11T09:43:11.266Z,15.49
2022-10-11T09:45:49.463Z,15.54
2022-10-11T09:48:25.879Z,15.73
2022-10-11T09:51:04.632Z,15.84
2022-10-11T09:53:50.875Z,15.89
2022-10-11T09:56:26.043Z,15.99
2022-10-11T09:59:26.054Z,16.07
2022-10-11T10:02:20.268Z,16.05
2022-10-11T10:05:02.303Z,16.26
2022-10-11T10:07:37.035Z,16.32
2022-10-11T10:10:28.196Z,16.43
2022-10-11T10:13:04.430Z,16.42
2022-10-11T10:15:37.697Z,16.30
2022-10-11T10:18:19.984Z,16.29
2022-10-11T10:20:53.858Z,16.33
2022-10-11T10:23:29.673Z,16.37
2022-10-11T10:26:14.563Z,16.48
2022-10-11T10:28:58.912Z,16.42
2022-10-11T10:31:54.911Z,16.41
2022-10-11T10:34:33.310Z,16.39
2022-10-11T10:37:16.715Z,16.34
2022-10-11T10:39:54.247Z,16.24
2022-10-11T10:42:27.530Z,16.31
2022-10-11T10:45:00.969Z,16.38
2022-10-11T10:47:50.390Z,16.36
2022-10-11T10:50:26.922Z,16.40
2022-10-11T10:53:13.475Z,16.47
2022-10-11T10:55:50.013Z,16.42
2022-10-11T10:58:39.722Z,16.43
2022-10-11T11:01:18.887Z,16.48
2022-10-11T11:03:57.821Z,16.45
2022-10-11T11:06:37.395Z,16.42
2022-10-11T11:09:16.935Z,16.31
2022-10-11T11:11:58.595Z,16.37
2022-10-11T11:14:46.738Z,16.43
2022-10-11T11:17:28.747Z,16.54
2022-10-11T11:20:15.672Z,16.69
2022-10-11T11:22:55.198Z,16.58
2022-10-11T11:25:30.722Z,16.51
2022-10-11T11:28:18.072Z,16.60
2022-10-11T11:30:58.798Z,16.74
2022-10-11T11:33:47.787Z,16.72
2022-10-11T11:36:27.455Z,16.66
2022-10-11T11:39:02.781Z,16.59
2022-10-11T11:41:40.650Z,16.62
2022-10-11T11:44:17.413Z,16.62
2022-10-11T11:46:55.026Z,16.57
2022-10-11T11:49:33.872Z,16.54
2022-10-11T11:52:12.527Z,16.56
2022-10-11T11:54:50.851Z,16.64
2022-10-11T11:57:33.433Z,16.59
2022-10-11T12:00:13.255Z,16.63
2022-10-11T12:02:52.026Z,16.66
2022-10-11T12:05:29.062Z,16.71
2022-10-11T12:08:05.298Z,16.56
2022-10-11T12:10:53.119Z,16.43
2022-10-11T12:13:32.257Z,16.56
2022-10-11T12:16:09.534Z,16.59
2022-10-11T12:18:59.164Z,16.50
2022-10-11T12:21:34.241Z,16.51
2022-10-11T12:24:11.320Z,16.38
2022-10-11T12:26:45.077Z,16.41
2022-10-11T12:29:43.536Z,16.39
2022-10-11T12:32:50.998Z,16.29
2022-10-11T12:35:54.899Z,16.31
2022-10-11T12:38:30.578Z,16.16
2022-10-11T12:41:38.418Z,16.23
2022-10-11T12:44:21.495Z,16.09
2022-10-11T12:47:25.135Z,16.12
2022-10-11T12:50:14.839Z,16.01
2022-10-11T12:52:54.717Z,15.76
2022-10-11T12:55:46.671Z,15.52
2022-10-11T12:58:27.362Z,15.53
2022-10-11T13:01:16.854Z,15.48
2022-10-11T13:03:57.241Z,15.38
2022-10-11T13:06:34.098Z,15.43
2022-10-11T13:09:17.354Z,15.54
2022-10-11T13:11:53.743Z,15.56
2022-10-11T13:14:29.009Z,15.62
2022-10-11T13:17:15.294Z,15.56
2022-10-11T13:19:58.230Z,15.54
2022-10-11T13:22:34.907Z,15.54
2022-10-11T13:25:08.759Z,15.43
2022-10-11T13:27:42.098Z,15.28
2022-10-11T13:30:18.233Z,15.22
2022-10-11T13:32:51.768Z,15.16
2022-10-11T13:35:30.354Z,15.06
2022-10-11T13:38:04.300Z,15.00
2022-10-11T13:40:37.994Z,14.93
2022-10-11T13:43:12.826Z,14.85
2022-10-11T13:45:45.406Z,14.71
2022-10-11T13:48:17.911Z,14.67
2022-10-11T13:51:06.303Z,14.49
2022-10-11T13:53:56.387Z,14.54
2022-10-11T13:56:31.688Z,14.49
2022-10-11T13:59:05.007Z,14.45
2022-10-11T14:01:39.865Z,14.31
2022-10-11T14:04:14.792Z,14.35
2022-10-11T14:06:52.015Z,14.35
2022-10-11T14:09:29.075Z,14.35
2022-10-11T14:12:37.790Z,14.21
2022-10-11T14:15:24.842Z,14.20
2022-10-11T14:17:57.856Z,14.15
2022-10-11T14:20:38.471Z,14.12
2022-10-11T14:23:12.607Z,14.05
2022-10-11T14:25:45.651Z,14.03
2022-10-11T14:28:18.065Z,14.03
2022-10-11T14:30:51.126Z,14.04
2022-10-11T14:33:23.598Z,14.09
2022-10-11T14:35:58.275Z,14.12
2022-10-11T14:38:30.567Z,14.17
2022-10-11T14:41:03.158Z,14.10
2022-10-11T14:43:35.501Z,13.92
2022-10-11T14:46:17.635Z,13.79
2022-10-11T14:48:55.564Z,13.87
2022-10-11T14:51:33.648Z,13.88
2022-10-11T14:54:06.085Z,13.82
2022-10-11T14:56:38.727Z,13.82
2022-10-11T14:59:13.962Z,13.89
2022-10-11T15:01:50.982Z,13.87
2022-10-11T15:04:25.455Z,13.86
2022-10-11T15:06:58.123Z,13.76
2022-10-11T15:09:33.695Z,13.89
2022-10-11T15:12:06.173Z,13.90
2022-10-11T15:14:38.525Z,13.92
2022-10-11T15:17:12.218Z,13.96
2022-10-11T15:19:44.566Z,14.01
2022-10-11T15:22:16.879Z,13.94
2022-10-11T15:24:51.673Z,13.86
2022-10-11T15:27:27.921Z,13.88
2022-10-11T15:30:00.517Z,13.96
2022-10-11T15:32:33.497Z,14.00
2022-10-11T15:35:06.479Z,13.96
2022-10-11T15:37:39.578Z,13.96
2022-10-11T15:40:17.707Z,13.97
2022-10-11T15:42:51.227Z,14.03
2022-10-11T15:45:23.910Z,14.00
2022-10-11T15:47:57.051Z,14.02
2022-10-11T15:50:36.588Z,13.82
2022-10-11T15:53:11.444Z,13.79
2022-10-11T15:55:45.632Z,13.87
2022-10-11T15:58:20.903Z,13.90
2022-10-11T16:00:55.687Z,13.92
2022-10-11T16:03:29.694Z,13.94
2022-10-11T16:06:05.198Z,13.93
2022-10-11T16:08:38.862Z,13.85
2022-10-11T16:11:12.057Z,13.88
2022-10-11T16:13:44.809Z,13.92
2022-10-11T16:16:17.279Z,13.86
2022-10-11T16:18:50.378Z,13.81
2022-10-11T16:21:23.486Z,13.87
2022-10-11T16:23:55.832Z,13.80
2022-10-11T16:26:28.341Z,13.69
2022-10-11T16:29:00.760Z,13.68
2022-10-11T16:31:33.242Z,13.73
2022-10-11T16:34:06.250Z,13.75
2022-10-11T16:36:40.083Z,13.73
2022-10-11T16:39:14.378Z,13.51
2022-10-11T16:41:47.235Z,13.45
2022-10-11T16:44:23.358Z,13.56
2022-10-11T16:46:55.943Z,13.60
2022-10-11T16:49:28.934Z,13.62
2022-10-11T16:52:03.154Z,13.62
2022-10-11T16:54:35.490Z,13.60
2022-10-11T16:57:08.420Z,13.61
2022-10-11T16:59:41.129Z,13.61
2022-10-11T17:02:16.108Z,13.61
2022-10-11T17:04:50.746Z,13.63
2022-10-11T17:07:23.179Z,13.60
2022-10-11T17:09:55.604Z,13.58
2022-10-11T17:12:28.167Z,13.62
2022-10-11T17:15:00.471Z,13.65
2022-10-11T17:17:32.764Z,13.64
2022-10-11T17:20:06.846Z,13.61
2022-10-11T17:22:39.358Z,13.62
2022-10-11T17:25:11.761Z,13.59
2022-10-11T17:27:44.038Z,13.55
2022-10-11T17:30:16.810Z,13.55
2022-10-11T17:32:50.383Z,13.48
2022-10-11T17:35:23.361Z,13.44
2022-10-11T17:37:55.667Z,13.40
2022-10-11T17:40:28.030Z,13.42
2022-10-11T17:43:00.375Z,13.41
2022-10-11T17:45:32.730Z,13.38
2022-10-11T17:48:05.290Z,13.37
2022-10-11T17:50:41.547Z,13.37
2022-10-11T17:53:13.940Z,13.36
2022-10-11T17:55:48.120Z,13.32
2022-10-11T17:58:20.486Z,13.34
2022-10-11T18:00:54.121Z,13.31
2022-10-11T18:03:26.975Z,13.26
2022-10-11T18:06:02.284Z,13.27
2022-10-11T18:08:39.966Z,13.30
2022-10-11T18:11:19.958Z,13.24
2022-10-11T18:13:52.937Z,13.29
2022-10-11T18:16:29.651Z,13.27
2022-10-11T18:19:04.138Z,13.26
2022-10-11T18:21:37.283Z,13.28
2022-10-11T18:24:12.574Z,13.26
2022-10-11T18:26:45.911Z,13.24
2022-10-11T18:29:18.231Z,13.23
2022-10-11T18:31:50.571Z,13.20
2022-10-11T18:34:22.907Z,13.19
2022-10-11T18:36:56.052Z,13.14
2022-10-11T18:39:28.410Z,13.12
2022-10-11T18:42:03.804Z,13.10
2022-10-11T18:44:36.120Z,13.07
2022-10-11T18:47:08.436Z,13.05
2022-10-11T18:49:40.721Z,13.03
2022-10-11T18:52:13.689Z,13.07
2022-10-11T18:54:45.979Z,13.04
2022-10-11T18:57:18.552Z,13.02
2022-10-11T18:59:50.901Z,12.98
2022-10-11T19:02:23.203Z,12.98
2022-10-11T19:04:55.512Z,12.92
2022-10-11T19:07:28.605Z,12.87
2022-10-11T19:10:02.051Z,12.88
2022-10-11T19:12:34.386Z,12.92
2022-10-11T19:17:49.950Z,12.88
2022-10-11T19:20:22.416Z,12.88
2022-10-11T19:22:55.398Z,12.92
2022-10-11T19:25:28.048Z,12.86
2022-10-11T19:28:00.390Z,12.82
2022-10-11T19:30:32.724Z,12.86
2022-10-11T19:33:05.015Z,12.88
2022-10-11T19:35:37.341Z,12.95
2022-10-11T19:38:10.425Z,12.91
2022-10-11T19:40:42.803Z,12.88
2022-10-11T19:43:15.484Z,12.91
2022-10-11T19:45:48.172Z,12.91
2022-10-11T19:48:20.497Z,12.84
2022-10-11T19:50:52.880Z,12.82
2022-10-11T19:53:26.167Z,12.83
2022-10-11T19:56:00.401Z,12.80
2022-10-11T19:58:32.824Z,12.76
2022-10-11T20:01:07.506Z,12.75
2022-10-11T20:03:39.864Z,12.74
2022-10-11T20:06:12.495Z,12.79
2022-10-11T20:08:46.375Z,12.71
2022-10-11T20:11:20.031Z,12.67
2022-10-11T20:13:53.216Z,12.73
2022-10-11T20:16:27.596Z,12.73
2022-10-11T20:19:01.311Z,12.72
2022-10-11T20:21:33.632Z,12.72
2022-10-11T20:24:07.822Z,12.76
2022-10-11T20:26:40.259Z,12.72
2022-10-11T20:29:12.602Z,12.66
2022-10-11T20:31:45.008Z,12.67
2022-10-11T20:34:17.345Z,12.59
2022-10-11T20:36:49.678Z,12.55
2022-10-11T20:39:22.995Z,12.54
2022-10-11T20:41:55.329Z,12.52
2022-10-11T20:44:27.647Z,12.57
2022-10-11T20:47:03.894Z,12.57
2022-10-11T20:49:36.583Z,12.64
2022-10-11T20:52:08.832Z,12.59
2022-10-11T20:54:41.791Z,12.64
2022-10-11T20:57:14.103Z,12.62
2022-10-11T20:59:47.591Z,12.66
2022-10-11T21:02:19.920Z,12.68
2022-10-11T21:04:52.239Z,12.70
2022-10-11T21:07:24.583Z,12.69
2022-10-11T21:09:57.534Z,12.67
2022-10-11T21:12:29.838Z,12.64
2022-10-11T21:15:02.109Z,12.59
2022-10-11T21:17:34.914Z,12.53
2022-10-11T21:20:08.104Z,12.58
2022-10-11T21:22:40.414Z,12.57
2022-10-11T21:25:20.927Z,12.57
2022-10-11T21:27:53.251Z,12.57
2022-10-11T21:30:25.639Z,12.47
2022-10-11T21:32:57.955Z,12.47
2022-10-11T21:35:30.748Z,12.39
2022-10-11T21:38:03.083Z,12.44
2022-10-11T21:40:39.046Z,12.42
2022-10-11T21:43:11.342Z,12.42
2022-10-11T21:45:43.671Z,12.45
2022-10-11T21:48:16.011Z,12.47
2022-10-11T21:50:52.133Z,12.51
2022-10-11T21:53:24.467Z,12.44
2022-10-11T21:55:57.955Z,12.44
2022-10-11T21:58:30.286Z,12.44
2022-10-11T22:01:02.579Z,12.46
2022-10-11T22:03:34.905Z,12.48
2022-10-11T22:06:07.343Z,12.47
2022-10-11T22:08:39.850Z,12.53
2022-10-11T22:11:13.088Z,12.54
2022-10-11T22:13:45.445Z,12.52
2022-10-11T22:16:17.728Z,12.48
2022-10-11T22:18:52.432Z,12.49
2022-10-11T22:21:24.740Z,12.49
2022-10-11T22:23:57.089Z,12.53
2022-10-11T22:26:30.904Z,12.43
2022-10-11T22:29:03.504Z,12.42
2022-10-11T22:31:35.839Z,12.39
2022-10-11T22:34:08.170Z,12.42
2022-10-11T22:36:40.486Z,12.45
2022-10-11T22:39:13.067Z,12.47
2022-10-11T22:41:46.032Z,12.52
2022-10-11T22:44:18.316Z,12.51
2022-10-11T22:46:50.635Z,12.48
2022-10-11T22:49:22.929Z,12.54
2022-10-11T22:51:55.231Z,12.57
2022-10-11T22:54:27.597Z,12.52
2022-10-11T22:57:00.567Z,12.52
2022-10-11T22:59:32.895Z,12.51
2022-10-11T23:02:05.238Z,12.48
2022-10-11T23:04:37.575Z,12.53
2022-10-11T23:07:09.919Z,12.48
2022-10-11T23:09:42.237Z,12.47
2022-10-11T23:12:15.262Z,12.47
2022-10-11T23:14:47.530Z,12.45
2022-10-11T23:17:19.862Z,12.41
2022-10-11T23:19:52.367Z,12.48
2022-10-11T23:22:25.114Z,12.38
2022-10-11T23:24:57.470Z,12.43
2022-10-11T23:27:30.507Z,12.41
2022-10-11T23:30:03.497Z,12.46
2022-10-11T23:32:36.582Z,12.48
2022-10-11T23:35:18.484Z,12.43
2022-10-11T23:37:52.735Z,12.45
2022-10-11T23:40:25.103Z,12.44
2022-10-11T23:42:58.027Z,12.44
2022-10-11T23:45:30.371Z,12.47
2022-10-11T23:48:02.923Z,12.47
2022-10-11T23:50:35.217Z,12.39
2022-10-11T23:53:07.490Z,12.35
2022-10-11T23:55:39.967Z,12.34
2022-10-11T23:58:12.904Z,12.40
